Time;durP1;ratioP1;P1;durP2;ratioP2;P2;SDS_P1;SDS_P2;PMS_P1;PMS_P2;Temp;Humidity;BMP_temperature;BMP_pressure;BME280_temperature;BME280_humidity;BME280_pressure;Samples;Min_cycle;Max_cycle;Signal;HPM_P1;HPM_P2
2022/08/18 00:02:10;;;;;;;3.10;2.75;;;;;;;24.07;41.50;93711.13;4956813;28;20032;-80
2022/08/18 00:04:37;;;;;;;5.70;3.05;;;;;;;24.19;42.50;93748.72;4957532;28;20026;-80
2022/08/18 00:07:05;;;;;;;4.80;2.80;;;;;;;24.06;42.80;93747.59;4956746;28;20030;-79
2022/08/18 00:09:33;;;;;;;4.60;2.55;;;;;;;24.05;42.66;93751.50;4956836;28;20647;-81
2022/08/18 00:12:02;;;;;;;3.53;2.90;;;;;;;23.75;42.74;93706.72;4955434;28;20597;-80
2022/08/18 00:14:27;;;;;;;2.85;2.60;;;;;;;23.82;43.03;93739.25;4939343;28;20545;-79
2022/08/18 00:16:53;;;;;;;3.92;2.60;;;;;;;23.76;42.75;93734.66;4956323;28;20117;-80
2022/08/18 00:19:19;;;;;;;3.33;2.67;;;;;;;23.85;42.76;93760.19;4958596;28;20059;-80
2022/08/18 00:21:44;;;;;;;3.95;3.20;;;;;;;23.87;42.65;93760.53;4956667;28;20086;-80
2022/08/18 00:24:10;;;;;;;3.33;2.63;;;;;;;23.74;43.22;93748.63;4947132;28;20166;-80
2022/08/18 00:26:35;;;;;;;3.38;2.55;;;;;;;23.52;43.17;93730.91;4956668;28;20129;-80
2022/08/18 00:29:01;;;;;;;3.20;2.50;;;;;;;23.55;42.99;93751.84;4955984;28;20487;-80
2022/08/18 00:31:26;;;;;;;5.85;3.58;;;;;;;23.51;43.82;93746.41;4957126;28;20067;-79
2022/08/18 00:33:52;;;;;;;6.38;3.13;;;;;;;23.35;43.34;93731.75;4941740;28;20035;-80
2022/08/18 00:36:17;;;;;;;3.38;2.88;;;;;;;23.51;43.49;93757.25;4956292;28;20027;-80
2022/08/18 00:38:42;;;;;;;4.55;3.65;;;;;;;23.28;43.53;93720.94;4945693;28;20027;-80
2022/08/18 00:41:08;;;;;;;3.58;3.08;;;;;;;23.27;43.61;93727.53;4953488;28;20049;-80
2022/08/18 00:43:39;;;;;;;7.18;3.50;;;;;;;23.38;44.02;93758.09;4954369;28;20027;-80
2022/08/18 00:46:08;;;;;;;3.50;3.20;;;;;;;23.32;44.24;93762.41;4954775;28;20510;-81
2022/08/18 00:48:33;;;;;;;7.43;3.42;;;;;;;23.13;44.75;93721.00;4954775;28;20065;-81
2022/08/18 00:51:05;;;;;;;5.28;3.67;;;;;;;23.24;44.58;93747.31;4936711;28;20538;-80
2022/08/18 00:53:32;;;;;;;4.70;3.50;;;;;;;23.34;44.79;93762.75;4956325;28;21057;-80
2022/08/18 00:56:03;;;;;;;3.15;2.85;;;;;;;23.12;44.63;93735.72;4956678;28;20043;-80
2022/08/18 00:58:42;;;;;;;6.13;3.80;;;;;;;23.25;44.63;93770.56;4959670;28;20100;-80
2022/08/18 01:01:10;;;;;;;4.13;3.25;;;;;;;23.20;44.14;93773.69;4956499;28;20029;-80
2022/08/18 01:03:38;;;;;;;4.22;3.70;;;;;;;22.95;44.62;93741.22;4957347;28;20549;-80
2022/08/18 01:06:31;;;;;;;4.95;3.40;;;;;;;23.14;44.61;93768.66;4954688;28;20240;-79
2022/08/18 01:08:57;;;;;;;6.88;3.28;;;;;;;23.12;45.15;93776.41;4942140;28;20038;-80
2022/08/18 01:11:23;;;;;;;6.30;3.85;;;;;;;22.93;44.73;93757.88;4954176;28;20387;-80
2022/08/18 01:13:49;;;;;;;7.30;3.60;;;;;;;22.95;45.03;93773.78;4953656;28;20039;-80
2022/08/18 01:21:52;;;;;;;6.68;3.33;;;;;;;22.65;45.44;93755.22;4959422;28;20031;-79
2022/08/18 01:27:17;;;;;;;5.55;3.80;;;;;;;22.76;45.46;93766.81;4957543;28;20056;-80
2022/08/18 01:29:47;;;;;;;9.48;3.88;;;;;;;22.63;45.36;93744.75;4957774;28;20431;-79
2022/08/18 01:32:21;;;;;;;5.75;4.10;;;;;;;22.73;45.54;93762.94;4955686;28;20114;-80
2022/08/18 01:34:49;;;;;;;6.03;4.18;;;;;;;22.53;45.59;93750.22;4957695;28;20030;-79
2022/08/18 01:37:16;;;;;;;5.30;3.78;;;;;;;22.29;45.72;93716.59;4957946;28;20027;-79
2022/08/18 01:39:43;;;;;;;7.22;4.00;;;;;;;22.28;45.68;93725.88;4958224;28;20078;-80
2022/08/18 01:42:09;;;;;;;7.60;5.07;;;;;;;22.29;46.17;93743.69;4955858;28;20054;-81
2022/08/18 01:44:35;;;;;;;9.50;5.25;;;;;;;22.30;46.18;93746.00;4943989;28;20061;-80
2022/08/18 01:47:00;;;;;;;5.10;4.00;;;;;;;22.20;46.34;93730.47;4958039;28;20027;-79
2022/08/18 01:49:27;;;;;;;5.82;4.00;;;;;;;22.11;46.23;93727.41;4957932;28;20033;-80
2022/08/18 01:51:54;;;;;;;6.00;4.88;;;;;;;22.01;46.62;93711.94;4957242;28;20510;-80
2022/08/18 01:54:20;;;;;;;6.20;3.83;;;;;;;21.99;46.94;93732.44;4960724;28;20027;-79
2022/08/18 01:56:48;;;;;;;4.13;3.50;;;;;;;22.08;46.88;93744.44;4954527;28;20035;-80
2022/08/18 01:59:14;;;;;;;5.50;3.95;;;;;;;22.15;47.04;93755.25;4959173;28;20031;-80
2022/08/18 02:01:42;;;;;;;4.97;4.10;;;;;;;21.77;47.05;93705.34;4941604;28;20023;-81
2022/08/18 02:04:09;;;;;;;4.57;4.00;;;;;;;21.99;47.11;93741.34;4955586;28;20054;-79
2022/08/18 02:06:35;;;;;;;5.97;4.38;;;;;;;21.95;46.97;93737.09;4939463;28;20023;-80
2022/08/18 02:09:01;;;;;;;8.68;5.15;;;;;;;21.66;46.96;93691.03;4957483;28;20092;-79
2022/08/18 02:11:26;;;;;;;4.85;4.13;;;;;;;21.65;46.93;93699.56;4956686;28;20073;-81
2022/08/18 02:13:52;;;;;;;5.90;3.85;;;;;;;21.91;47.40;93756.00;4958812;28;20030;-80
2022/08/18 02:16:17;;;;;;;4.93;3.97;;;;;;;21.80;47.38;93745.19;4948696;28;20018;-80
2022/08/18 02:18:43;;;;;;;7.50;4.32;;;;;;;21.70;47.49;93728.94;4955950;28;20418;-80
2022/08/18 02:21:12;;;;;;;5.15;3.70;;;;;;;21.83;47.48;93738.22;4947432;28;20043;-80
2022/08/18 02:23:40;;;;;;;7.78;4.43;;;;;;;21.97;47.66;93761.81;4954465;28;20050;-80
2022/08/18 02:26:08;;;;;;;6.40;4.60;;;;;;;21.77;47.50;93734.34;4957367;28;20529;-80
2022/08/18 02:28:34;;;;;;;5.97;4.50;;;;;;;21.80;47.49;93731.63;4955561;28;20038;-80
2022/08/18 02:31:13;;;;;;;5.13;4.63;;;;;;;21.49;48.20;93712.66;4957427;28;20158;-80
2022/08/18 02:33:39;;;;;;;4.65;4.25;;;;;;;21.48;48.31;93711.88;4957491;28;20035;-79
2022/08/18 02:36:06;;;;;;;5.75;4.03;;;;;;;21.46;48.18;93714.19;4956441;28;20078;-80
2022/08/18 02:38:32;;;;;;;5.40;4.53;;;;;;;21.57;48.17;93735.88;4937022;28;20483;-80
2022/08/18 02:41:00;;;;;;;7.80;3.85;;;;;;;21.65;48.21;93751.75;4957776;28;20053;-80
2022/08/18 02:43:26;;;;;;;5.22;4.40;;;;;;;21.50;48.21;93736.63;4953744;28;20677;-80
2022/08/18 02:45:52;;;;;;;5.97;4.32;;;;;;;21.62;48.31;93759.84;4956401;28;20023;-81
2022/08/18 02:48:36;;;;;;;7.32;4.93;;;;;;;21.39;48.71;93762.88;4953824;28;20433;-79
2022/08/18 02:51:04;;;;;;;4.68;4.22;;;;;;;21.37;48.74;93749.72;4956878;28;20109;-80
2022/08/18 02:53:30;;;;;;;8.20;4.55;;;;;;;21.23;48.81;93719.94;4955712;28;20105;-79
2022/08/18 02:56:29;;;;;;;7.50;5.30;;;;;;;21.31;48.80;93729.63;4957214;28;20458;-80
2022/08/18 02:58:58;;;;;;;8.52;4.35;;;;;;;21.53;48.77;93764.81;4946248;28;20027;-79
2022/08/18 03:01:26;;;;;;;4.88;4.32;;;;;;;21.39;48.74;93750.13;4955683;28;20039;-79
2022/08/18 03:03:52;;;;;;;8.82;4.40;;;;;;;21.23;48.83;93728.03;4939388;28;20203;-80
2022/08/18 03:06:19;;;;;;;8.52;3.97;;;;;;;21.25;48.62;93739.25;4957744;28;20022;-80
2022/08/18 03:08:47;;;;;;;4.60;4.13;;;;;;;21.08;48.56;93717.56;4954758;28;20483;-80
2022/08/18 03:11:15;;;;;;;7.00;4.35;;;;;;;21.18;48.80;93735.75;4957078;28;20037;-81
2022/08/18 03:13:41;;;;;;;5.63;4.35;;;;;;;21.18;48.84;93744.63;4954296;28;20031;-80
2022/08/18 03:16:06;;;;;;;5.18;4.60;;;;;;;21.02;49.39;93725.28;4955208;28;20074;-79
2022/08/18 03:18:32;;;;;;;5.53;4.82;;;;;;;21.21;49.17;93752.00;4956661;28;20026;-80
2022/08/18 03:21:05;;;;;;;3.78;3.47;;;;;;;21.31;49.03;93772.91;4952650;28;20058;-80
2022/08/18 03:23:30;;;;;;;5.28;4.15;;;;;;;21.31;49.19;93780.25;4957164;28;20031;-80
2022/08/18 03:25:56;;;;;;;6.72;4.35;;;;;;;21.09;49.31;93743.44;4954849;28;20529;-80
2022/08/18 03:28:21;;;;;;;5.43;4.28;;;;;;;21.09;49.06;93759.66;4957286;28;20023;-79
2022/08/18 03:30:47;;;;;;;7.13;4.13;;;;;;;21.25;49.39;93779.84;4954594;28;20057;-80
2022/08/18 03:33:12;;;;;;;6.25;4.78;;;;;;;21.11;49.23;93755.44;4955889;28;20046;-79
2022/08/18 03:35:40;;;;;;;5.32;4.28;;;;;;;20.96;49.50;93724.09;4956646;28;20027;-80
2022/08/18 03:38:06;;;;;;;4.97;4.22;;;;;;;21.13;49.43;93761.22;4955317;28;20903;-80
2022/08/18 03:40:31;;;;;;;5.47;4.07;;;;;;;21.03;49.50;93751.91;4955071;28;20422;-80
2022/08/18 03:42:57;;;;;;;8.98;4.70;;;;;;;21.03;49.36;93757.31;4954447;28;20014;-80
2022/08/18 03:45:23;;;;;;;5.30;4.60;;;;;;;20.87;49.90;93739.91;4955757;28;20438;-80
2022/08/18 03:47:51;;;;;;;5.25;4.70;;;;;;;21.16;49.69;93781.34;4955762;28;20027;-80
2022/08/18 03:50:18;;;;;;;5.10;4.60;;;;;;;21.08;49.64;93769.69;4954207;28;20118;-79
2022/08/18 03:52:47;;;;;;;5.13;4.07;;;;;;;20.98;49.92;93754.22;4953583;28;20026;-80
2022/08/18 03:55:14;;;;;;;8.07;4.70;;;;;;;20.99;49.92;93744.94;4954284;28;20182;-81
2022/08/18 03:57:42;;;;;;;7.47;5.32;;;;;;;21.02;49.79;93765.84;4953814;28;20497;-80
2022/08/18 04:00:08;;;;;;;5.70;4.30;;;;;;;21.02;49.82;93765.84;4954767;28;20031;-79
2022/08/18 04:02:34;;;;;;;9.13;5.07;;;;;;;21.13;50.04;93780.16;4954027;28;20031;-80
2022/08/18 04:04:59;;;;;;;6.57;5.15;;;;;;;20.94;49.99;93748.03;4956682;28;20066;-80
2022/08/18 04:07:25;;;;;;;6.78;4.45;;;;;;;20.96;50.09;93751.13;4954302;28;20038;-80
2022/08/18 04:09:50;;;;;;;6.85;4.55;;;;;;;21.12;50.06;93775.16;4951395;28;20027;-80
2022/08/18 04:12:16;;;;;;;4.45;4.00;;;;;;;21.27;50.16;93793.72;4954871;28;20035;-80
2022/08/18 04:14:45;;;;;;;5.93;4.32;;;;;;;21.29;50.14;93790.66;4952316;28;20034;-79
2022/08/18 04:17:11;;;;;;;7.55;4.93;;;;;;;21.30;50.50;93803.81;4955805;28;20525;-80
2022/08/18 04:19:36;;;;;;;5.47;4.57;;;;;;;21.11;50.17;93774.38;4953840;28;20031;-80
2022/08/18 04:22:05;;;;;;;5.28;4.25;;;;;;;21.27;50.41;93791.03;4955631;28;20107;-79
2022/08/18 04:24:33;;;;;;;7.15;4.20;;;;;;;21.15;50.28;93758.94;4954570;28;20159;-79
2022/08/18 04:27:01;;;;;;;6.40;4.97;;;;;;;21.46;50.04;93793.41;4954682;28;20026;-79
2022/08/18 04:29:27;;;;;;;6.20;4.90;;;;;;;21.62;50.09;93812.03;4950725;28;20027;-79
2022/08/18 04:31:53;;;;;;;6.28;4.97;;;;;;;21.54;49.43;93790.72;4952866;28;20054;-80
2022/08/18 04:34:21;;;;;;;6.38;5.10;;;;;;;21.70;48.96;93818.25;4953957;28;20106;-79
2022/08/18 04:36:47;;;;;;;9.05;6.50;;;;;;;21.41;48.66;93755.91;4955406;28;20038;-80
2022/08/18 04:39:13;;;;;;;6.70;5.47;;;;;;;21.72;48.63;93807.81;4954116;28;20023;-80
2022/08/18 04:41:42;;;;;;;8.35;6.82;;;;;;;21.82;48.77;93796.22;4953284;28;20034;-79
2022/08/18 04:44:09;;;;;;;7.03;5.28;;;;;;;21.77;48.23;93781.16;4955001;28;20027;-80
2022/08/18 04:46:38;;;;;;;7.80;5.40;;;;;;;21.90;48.25;93795.09;4954472;28;20031;-81
2022/08/18 04:49:04;;;;;;;15.20;6.32;;;;;;;21.73;48.32;93777.66;4956436;28;20142;-81
2022/08/18 04:51:30;;;;;;;8.15;5.72;;;;;;;22.13;48.51;93810.97;4953434;28;20078;-79
2022/08/18 04:53:59;;;;;;;15.30;6.68;;;;;;;21.94;47.70;93781.56;4956623;28;20521;-80
2022/08/18 04:56:35;;;;;;;10.38;6.30;;;;;;;21.90;47.89;93803.22;4955803;28;20419;-80
2022/08/18 04:59:05;;;;;;;11.07;6.00;;;;;;;21.83;47.60;93781.53;4958486;28;20884;-79
2022/08/18 05:01:36;;;;;;;6.88;6.15;;;;;;;21.78;47.75;93795.47;4955298;28;20027;-79
2022/08/18 05:04:01;;;;;;;12.88;6.88;;;;;;;22.08;47.84;93812.13;4956788;28;20867;-79
2022/08/18 05:06:28;;;;;;;15.50;6.88;;;;;;;21.70;48.73;93810.91;4955734;28;20115;-80
2022/08/18 05:08:57;;;;;;;18.23;6.40;;;;;;;21.60;49.35;93783.81;4957341;28;20057;-80
2022/08/18 05:11:24;;;;;;;12.30;7.20;;;;;;;21.78;49.17;93749.44;4956441;28;20023;-80
2022/08/18 05:13:54;;;;;;;11.25;6.38;;;;;;;22.35;48.96;93817.19;4957721;28;20063;-80
2022/08/18 05:16:20;;;;;;;8.07;5.75;;;;;;;22.31;48.67;93800.94;4957345;28;20160;-79
2022/08/18 05:18:45;;;;;;;8.55;6.53;;;;;;;22.36;48.30;93792.44;4957080;28;20135;-79
2022/08/18 05:21:14;;;;;;;11.55;7.05;;;;;;;22.54;48.18;93814.09;4955565;28;20978;-79
2022/08/18 05:23:46;;;;;;;13.38;7.60;;;;;;;22.76;48.14;93829.19;4956843;28;20047;-79
2022/08/18 05:26:13;;;;;;;11.25;6.68;;;;;;;22.91;48.17;93822.59;4956804;28;20960;-80
2022/08/18 05:28:40;;;;;;;11.05;7.35;;;;;;;22.81;47.67;93804.38;4959175;28;20026;-80
2022/08/18 05:31:12;;;;;;;15.00;7.60;;;;;;;22.56;47.42;93798.22;4953413;28;20510;-79
2022/08/18 05:33:41;;;;;;;11.23;6.70;;;;;;;22.51;47.95;93804.03;4942078;28;20042;-82
2022/08/18 05:36:37;;;;;;;9.50;6.85;;;;;;;22.66;47.90;93836.16;4955360;28;20078;-80
2022/08/18 05:39:07;;;;;;;12.85;6.63;;;;;;;22.20;48.86;93808.25;4936514;28;20050;-81
2022/08/18 05:41:37;;;;;;;11.30;7.15;;;;;;;22.45;49.02;93832.69;4957927;28;20338;-81
2022/08/18 05:44:04;;;;;;;13.55;7.43;;;;;;;22.48;48.90;93802.88;4952264;28;20050;-80
2022/08/18 05:46:36;;;;;;;11.80;7.53;;;;;;;22.69;48.20;93810.19;4955751;28;20529;-80
2022/08/18 05:49:03;;;;;;;12.65;7.50;;;;;;;22.84;48.15;93840.78;4955609;28;20479;-79
2022/08/18 05:51:38;;;;;;;8.95;7.82;;;;;;;22.67;48.68;93835.00;4956909;28;20150;-79
2022/08/18 05:56:53;;;;;;;9.57;7.38;;;;;;;22.99;48.10;93813.28;4959038;28;20189;-79
2022/08/18 05:59:31;;;;;;;14.45;9.15;;;;;;;23.00;48.02;93814.81;4956239;28;20049;-80
2022/08/18 06:02:26;;;;;;;11.25;8.27;;;;;;;23.34;47.58;93838.75;4956541;28;20125;-80
2022/08/18 06:05:05;;;;;;;8.80;7.10;;;;;;;23.12;47.70;93806.25;4954421;28;20752;-79
2022/08/18 06:07:42;;;;;;;12.07;7.32;;;;;;;22.78;47.46;93769.91;4947276;28;20085;-79
2022/08/18 06:10:08;;;;;;;8.80;6.80;;;;;;;23.48;47.36;93838.69;4956092;28;20086;-80
2022/08/18 06:12:35;;;;;;;10.10;7.68;;;;;;;23.52;47.05;93815.03;4955766;28;20509;-80
2022/08/18 06:15:13;;;;;;;9.45;6.95;;;;;;;23.44;47.21;93789.09;4956679;28;20026;-80
2022/08/18 06:17:57;;;;;;;13.18;7.68;;;;;;;23.94;46.31;93833.84;4941025;28;20118;-79
2022/08/18 06:20:31;;;;;;;9.75;7.07;;;;;;;24.07;46.01;93836.09;4957862;28;20859;-80
2022/08/18 06:23:27;;;;;;;17.20;8.07;;;;;;;24.18;45.30;93836.81;4952889;28;20034;-80
2022/08/18 06:26:18;;;;;;;10.98;6.45;;;;;;;23.91;45.26;93807.47;4940216;28;20109;-79
2022/08/18 06:29:05;;;;;;;16.90;8.27;;;;;;;24.24;45.79;93835.22;4945785;28;20037;-80
2022/08/18 06:32:06;;;;;;;7.65;6.85;;;;;;;24.07;45.25;93825.22;4938509;28;20611;-80
2022/08/18 06:34:51;;;;;;;10.80;7.63;;;;;;;24.23;45.16;93844.56;4939522;28;20047;-79
2022/08/18 06:37:32;;;;;;;9.90;6.75;;;;;;;24.01;45.38;93844.66;4936056;28;20070;-80
2022/08/18 06:39:57;;;;;;;10.32;7.35;;;;;;;24.00;46.21;93832.22;4938164;28;20034;-80
2022/08/18 06:42:29;;;;;;;7.80;6.78;;;;;;;24.28;45.60;93853.06;4937386;28;20027;-80
2022/08/18 06:45:05;;;;;;;13.80;7.55;;;;;;;24.24;45.38;93821.66;4934954;28;20029;-80
2022/08/18 06:47:46;;;;;;;9.73;7.63;;;;;;;24.48;45.51;93842.44;4935672;28;20027;-80
2022/08/18 06:50:49;;;;;;;8.88;7.05;;;;;;;24.51;45.06;93828.03;4938963;28;20032;-81
2022/08/18 06:53:14;;;;;;;19.17;7.07;;;;;;;24.60;44.59;93830.28;4899123;28;20138;-80
2022/08/18 06:55:42;;;;;;;14.82;7.57;;;;;;;24.31;45.07;93810.72;4923763;28;20034;-80
2022/08/18 06:58:12;;;;;;;11.95;7.50;;;;;;;24.41;44.60;93831.59;4934635;28;20022;-81
2022/08/18 07:00:42;;;;;;;12.35;6.20;;;;;;;24.37;44.98;93822.69;4937820;28;20032;-81
2022/08/18 07:03:14;;;;;;;7.35;6.50;;;;;;;24.22;45.49;93821.25;4919091;29;20019;-81
2022/08/18 07:06:06;;;;;;;13.00;7.85;;;;;;;23.98;45.14;93828.38;4934633;28;20043;-80
2022/08/18 07:08:43;;;;;;;11.70;7.43;;;;;;;23.91;45.60;93802.03;4929563;28;21019;-80
2022/08/18 07:11:26;;;;;;;7.82;5.97;;;;;;;23.99;45.89;93816.34;4936311;28;20472;-81
2022/08/18 07:13:55;;;;;;;10.00;5.93;;;;;;;23.68;45.75;93796.34;4938517;28;20050;-81
2022/08/18 07:16:30;;;;;;;10.18;6.22;;;;;;;23.35;46.45;93797.66;4934043;28;20024;-80
2022/08/18 07:19:10;;;;;;;8.55;5.78;;;;;;;23.39;46.90;93776.69;4938502;28;20180;-81
2022/08/18 07:21:39;;;;;;;6.95;5.72;;;;;;;23.74;46.95;93791.28;4933801;28;20043;-80
2022/08/18 07:24:09;;;;;;;6.40;5.70;;;;;;;23.77;45.92;93793.97;4936576;28;20027;-80
2022/08/18 07:27:06;;;;;;;11.25;4.65;;;;;;;23.91;45.29;93806.69;4933638;28;20522;-80
2022/08/18 07:29:35;;;;;;;17.27;5.68;;;;;;;23.82;44.43;93793.56;4939237;28;20114;-80
2022/08/18 07:32:15;;;;;;;5.90;4.85;;;;;;;23.99;43.68;93808.97;4932311;28;20058;-80
2022/08/18 07:34:50;;;;;;;6.13;4.45;;;;;;;24.02;45.20;93807.41;4938650;28;20024;-80
2022/08/18 07:37:21;;;;;;;7.68;5.28;;;;;;;24.12;45.67;93798.44;4935540;28;20786;-80
2022/08/18 07:39:55;;;;;;;5.03;4.40;;;;;;;24.17;44.88;93806.16;4926102;28;20027;-80
2022/08/18 07:42:37;;;;;;;7.13;4.85;;;;;;;24.17;43.68;93806.16;4934383;28;20439;-80
2022/08/18 07:45:18;;;;;;;5.95;4.50;;;;;;;24.26;43.58;93809.19;4920150;28;20051;-80
2022/08/18 07:48:10;;;;;;;7.47;5.10;;;;;;;24.29;44.23;93799.47;4938570;28;20090;-81
2022/08/18 07:50:54;;;;;;;10.93;4.78;;;;;;;24.33;43.98;93811.09;4927698;28;20031;-81
2022/08/18 07:53:34;;;;;;;4.68;4.20;;;;;;;24.24;44.16;93811.56;4926962;28;20038;-80
2022/08/18 07:56:19;;;;;;;7.13;4.78;;;;;;;24.53;43.97;93801.22;4920029;28;20042;-80
2022/08/18 07:59:00;;;;;;;6.15;4.40;;;;;;;24.79;43.20;93811.47;4927294;28;20055;-80
2022/08/18 08:01:53;;;;;;;4.68;4.20;;;;;;;24.70;43.17;93805.72;4932762;28;20107;-81
2022/08/18 08:04:40;;;;;;;5.60;3.95;;;;;;;24.62;43.22;93801.53;4933222;28;20672;-80
2022/08/18 08:07:13;;;;;;;5.50;4.88;;;;;;;24.77;41.68;93811.13;4933058;28;20038;-80
2022/08/18 08:09:56;;;;;;;7.60;5.28;;;;;;;24.98;41.96;93812.09;4911547;29;20023;-80
2022/08/18 08:12:46;;;;;;;9.35;3.58;;;;;;;24.79;40.36;93789.72;4933146;28;20272;-80
2022/08/18 08:15:29;;;;;;;7.65;4.43;;;;;;;25.10;40.34;93808.84;4917660;28;20046;-80
2022/08/18 08:18:07;;;;;;;4.82;4.35;;;;;;;24.65;40.59;93770.78;4933213;28;20032;-80
2022/08/18 08:20:44;;;;;;;5.53;4.03;;;;;;;24.97;41.63;93805.09;4932165;28;20039;-81
2022/08/18 08:23:33;;;;;;;5.25;4.60;;;;;;;25.04;41.59;93802.28;4937448;28;20046;-80
2022/08/18 08:26:04;;;;;;;5.68;4.43;;;;;;;25.27;42.17;93807.88;4934071;28;20039;-80
2022/08/18 08:28:53;;;;;;;5.88;3.95;;;;;;;25.36;39.65;93808.19;4935178;28;21328;-80
2022/08/18 08:31:41;;;;;;;4.88;4.10;;;;;;;25.01;40.45;93784.06;4931443;28;20047;-81
2022/08/18 08:34:11;;;;;;;9.93;4.43;;;;;;;25.17;41.14;93809.56;4940455;28;20043;-81
2022/08/18 08:36:43;;;;;;;5.53;4.28;;;;;;;25.36;39.97;93788.38;4926127;28;20069;-81
2022/08/18 08:39:30;;;;;;;4.45;3.95;;;;;;;24.92;39.67;93751.91;4929722;28;20043;-80
2022/08/18 08:42:00;;;;;;;5.53;4.25;;;;;;;25.32;39.34;93812.91;4937363;28;20487;-81
2022/08/18 08:44:31;;;;;;;5.13;4.25;;;;;;;25.42;39.47;93809.25;4937627;28;20051;-81
2022/08/18 08:47:24;;;;;;;4.70;3.80;;;;;;;25.46;38.78;93815.47;4936438;28;20034;-80
2022/08/18 08:49:49;;;;;;;9.40;4.03;;;;;;;25.54;39.27;93807.97;4932120;28;20298;-81
2022/08/18 08:52:14;;;;;;;4.07;3.50;;;;;;;25.69;38.19;93806.59;4937767;28;20031;-81
2022/08/18 08:54:46;;;;;;;4.90;3.35;;;;;;;25.61;37.68;93808.66;4940146;28;20780;-80
2022/08/18 08:57:13;;;;;;;8.95;3.70;;;;;;;25.28;37.22;93798.53;4939185;28;20027;-82
2022/08/18 08:59:41;;;;;;;6.88;3.70;;;;;;;25.51;37.82;93798.69;4942302;28;20114;-80
2022/08/18 09:02:22;;;;;;;6.18;3.70;;;;;;;25.59;37.46;93807.50;4940930;28;20024;-80
2022/08/18 09:05:20;;;;;;;4.93;4.20;;;;;;;25.59;37.80;93793.91;4942441;28;20534;-80
2022/08/18 09:08:29;;;;;;;3.22;2.90;;;;;;;25.77;37.88;93790.94;4940585;28;20046;-81
2022/08/18 09:11:12;;;;;;;3.47;2.92;;;;;;;25.80;36.71;93804.53;4916053;28;20309;-80
2022/08/18 09:14:10;;;;;;;3.38;2.95;;;;;;;25.93;35.59;93789.19;4937566;28;20043;-80
2022/08/18 09:17:22;;;;;;;3.72;2.88;;;;;;;25.95;36.90;93796.94;4932031;28;20073;-81
2022/08/18 09:20:25;;;;;;;3.25;2.60;;;;;;;25.92;34.92;93793.06;4910118;28;20142;-81
2022/08/18 09:23:01;;;;;;;4.30;3.00;;;;;;;26.11;35.06;93784.22;4933872;28;20024;-80
2022/08/18 09:25:31;;;;;;;4.30;3.22;;;;;;;26.06;35.30;93792.09;4934593;28;20075;-81
2022/08/18 09:28:11;;;;;;;4.20;3.13;;;;;;;25.76;35.19;93768.38;4920102;28;20032;-80
2022/08/18 09:31:10;;;;;;;3.60;2.50;;;;;;;25.66;34.94;93748.25;4920730;28;20051;-82
2022/08/18 09:33:45;;;;;;;3.58;2.85;;;;;;;26.18;34.90;93775.19;4936328;28;20097;-79
2022/08/18 09:36:38;;;;;;;3.67;3.35;;;;;;;26.41;34.84;93768.97;4931503;28;20036;-81
2022/08/18 09:42:13;;;;;;;3.22;2.67;;;;;;;26.14;32.96;93766.28;4934818;28;20454;-79
2022/08/18 09:44:45;;;;;;;4.70;2.85;;;;;;;26.33;32.12;93768.31;4935976;28;20027;-79
2022/08/18 09:47:37;;;;;;;4.07;2.33;;;;;;;26.42;33.47;93765.06;4932102;28;20039;-79
2022/08/18 09:50:05;;;;;;;4.03;2.30;;;;;;;26.63;33.72;93763.97;4938407;28;20031;-80
2022/08/18 09:52:33;;;;;;;4.47;2.80;;;;;;;26.58;33.93;93764.44;4932762;28;20120;-79
2022/08/18 09:55:05;;;;;;;4.10;3.10;;;;;;;26.42;33.79;93768.56;4935157;28;20052;-80
2022/08/18 09:57:35;;;;;;;3.20;2.83;;;;;;;26.24;34.65;93762.63;4938789;28;20027;-79
2022/08/18 10:00:04;;;;;;;4.65;3.03;;;;;;;26.15;34.71;93739.81;4934512;28;20058;-80
2022/08/18 10:02:30;;;;;;;3.53;3.05;;;;;;;26.22;33.84;93756.81;4936593;28;20031;-80
2022/08/18 10:05:29;;;;;;;5.00;3.22;;;;;;;26.35;34.25;93755.03;4933840;28;20570;-81
2022/08/18 10:08:04;;;;;;;3.20;2.90;;;;;;;26.30;33.40;93752.03;4916109;28;20042;-80
2022/08/18 10:10:46;;;;;;;3.80;3.50;;;;;;;26.36;34.31;93753.84;4931145;28;20039;-79
2022/08/18 10:13:32;;;;;;;3.70;3.13;;;;;;;26.18;35.02;93758.06;4936999;28;20027;-80
2022/08/18 10:16:07;;;;;;;4.15;3.38;;;;;;;26.25;33.46;93753.25;4932055;28;20035;-80
2022/08/18 10:18:32;;;;;;;;;;;;;;;26.44;35.96;93747.09;4932574;28;20061;-81
2022/08/18 10:21:10;;;;;;;4.60;3.78;;;;;;;26.26;34.65;93694.81;4937588;28;19915;-79
2022/08/18 10:23:52;;;;;;;3.72;2.97;;;;;;;26.27;34.68;93704.53;4931202;28;20023;-80
2022/08/18 10:26:29;;;;;;;3.63;3.28;;;;;;;26.73;32.99;93741.94;4919955;28;20039;-80
2022/08/18 10:29:10;;;;;;;2.78;2.55;;;;;;;26.72;32.84;93717.81;4936313;28;20058;-80
2022/08/18 10:31:54;;;;;;;4.57;3.22;;;;;;;26.91;34.38;93733.41;4932533;28;20499;-81
2022/08/18 10:34:41;;;;;;;3.55;3.25;;;;;;;26.56;33.77;93734.84;4930076;28;20440;-80
2022/08/18 10:37:32;;;;;;;3.67;3.00;;;;;;;26.72;34.20;93724.03;4931357;28;20083;-80
2022/08/18 10:40:17;;;;;;;4.72;3.22;;;;;;;26.79;34.42;93712.97;4935946;28;20038;-80
2022/08/18 10:42:50;;;;;;;4.75;3.45;;;;;;;26.80;33.94;93697.38;4916797;28;20455;-80
2022/08/18 10:45:33;;;;;;;3.65;3.15;;;;;;;26.81;34.15;93718.03;4919930;28;20579;-81
2022/08/18 10:48:15;;;;;;;4.55;3.33;;;;;;;27.04;36.20;93715.25;4929555;28;20372;-80
2022/08/18 10:50:53;;;;;;;3.65;3.08;;;;;;;27.26;34.27;93719.09;4930798;28;20047;-80
2022/08/18 10:53:25;;;;;;;3.92;3.33;;;;;;;26.98;32.75;93714.19;4911935;28;20463;-80
2022/08/18 10:56:01;;;;;;;6.93;3.10;;;;;;;26.96;33.19;93720.06;4926508;28;20027;-80
2022/08/18 10:59:03;;;;;;;3.80;3.40;;;;;;;26.80;33.36;93724.66;4918615;28;20082;-80
2022/08/18 11:01:47;;;;;;;4.65;3.25;;;;;;;26.94;33.90;93716.19;4934586;28;20550;-80
2022/08/18 11:04:40;;;;;;;6.33;3.00;;;;;;;27.06;33.35;93709.38;4927546;28;20114;-80
2022/08/18 11:07:09;;;;;;;4.30;2.40;;;;;;;27.02;32.75;93708.69;4914091;28;20316;-80
2022/08/18 11:09:35;;;;;;;3.40;3.08;;;;;;;27.10;34.06;93689.00;4932659;28;20034;-81
2022/08/18 11:12:02;;;;;;;3.30;2.83;;;;;;;27.33;33.70;93691.63;4932201;28;20086;-81
2022/08/18 11:14:48;;;;;;;7.05;3.35;;;;;;;26.96;32.47;93656.53;4934620;28;20031;-80
2022/08/18 11:17:34;;;;;;;2.90;2.60;;;;;;;27.25;31.66;93701.19;4934177;28;20120;-81
2022/08/18 11:20:04;;;;;;;2.55;2.35;;;;;;;27.08;31.94;93663.34;4914055;28;20027;-79
2022/08/18 11:22:32;;;;;;;3.40;2.70;;;;;;;27.28;31.67;93681.22;4920413;28;20030;-81
2022/08/18 11:24:59;;;;;;;3.83;2.33;;;;;;;27.23;31.17;93684.44;4932831;28;20023;-80
2022/08/18 11:27:27;;;;;;;2.97;2.35;;;;;;;27.42;31.25;93703.97;4933159;28;20030;-81
2022/08/18 11:29:54;;;;;;;3.10;2.50;;;;;;;27.24;30.45;93682.47;4916375;28;20020;-80
2022/08/18 11:32:26;;;;;;;2.67;2.45;;;;;;;27.47;30.58;93706.97;4913395;28;20047;-80
2022/08/18 11:35:01;;;;;;;3.53;3.22;;;;;;;27.51;30.98;93698.69;4946513;28;20235;-80
2022/08/18 11:37:59;;;;;;;5.25;2.97;;;;;;;27.50;30.98;93700.66;4950546;28;20027;-80
2022/08/18 11:40:35;;;;;;;3.92;3.40;;;;;;;27.58;30.71;93695.81;4953158;28;20392;-80
2022/08/18 11:43:10;;;;;;;3.60;3.10;;;;;;;27.42;30.52;93659.06;4951842;28;20031;-81
2022/08/18 11:45:51;;;;;;;5.32;2.35;;;;;;;27.66;30.97;93680.81;4949917;28;20406;-80
2022/08/18 11:48:43;;;;;;;5.78;2.78;;;;;;;27.90;31.44;93693.13;4953102;28;20053;-80
2022/08/18 11:51:16;;;;;;;8.40;2.83;;;;;;;27.86;30.18;93689.72;4949605;28;20039;-80
2022/08/18 11:53:47;;;;;;;3.45;3.15;;;;;;;27.98;30.06;93680.84;4935406;28;20035;-81
2022/08/18 11:56:13;;;;;;;4.00;2.60;;;;;;;27.82;31.22;93684.31;4949515;28;20728;-80
2022/08/18 11:58:54;;;;;;;5.38;2.95;;;;;;;27.93;31.06;93683.31;4951313;28;20102;-80
2022/08/18 12:01:48;;;;;;;4.78;3.03;;;;;;;27.92;30.86;93677.06;4955461;28;20080;-81
2022/08/18 12:04:14;;;;;;;4.07;3.53;;;;;;;28.09;31.11;93667.69;4954323;28;20679;-79
2022/08/18 12:06:58;;;;;;;3.25;2.40;;;;;;;28.08;30.30;93677.06;4970019;28;20520;-79
2022/08/18 12:09:39;;;;;;;3.70;3.22;;;;;;;27.99;28.94;93671.44;4972459;28;20034;-80
2022/08/18 12:12:26;;;;;;;3.38;3.08;;;;;;;28.16;31.02;93664.78;4970860;28;20027;-78
2022/08/18 12:14:54;;;;;;;5.60;3.33;;;;;;;28.05;30.40;93652.56;4973467;28;20035;-79
2022/08/18 12:17:20;;;;;;;4.78;3.15;;;;;;;28.16;30.66;93659.31;4963430;28;20038;-80